sensor_id;sensor_type;location;lat;lon;timestamp;pressure;altitude;pressure_sealevel;temperature;humidity
36798;BME280;22748;8.426;99.512;2023-09-08T12:12:24;100611.78;;;29.25;71.00
36798;BME280;22748;8.426;99.512;2023-09-08T12:14:55;100610.41;;;29.54;69.87
36798;BME280;22748;8.426;99.512;2023-09-08T12:17:26;100616.13;;;29.78;68.56
36798;BME280;22748;8.426;99.512;2023-09-08T12:19:56;100625.97;;;29.97;68.14
36798;BME280;22748;8.426;99.512;2023-09-08T12:22:50;100632.03;;;30.18;67.29
36798;BME280;22748;8.426;99.512;2023-09-08T12:25:22;100645.03;;;30.34;66.96
36798;BME280;22748;8.426;99.512;2023-09-08T12:27:53;100640.56;;;30.46;66.49
36798;BME280;22748;8.426;99.512;2023-09-08T12:30:24;100648.84;;;30.51;65.94
36798;BME280;22748;8.426;99.512;2023-09-08T12:32:58;100666.22;;;30.55;65.66
36798;BME280;22748;8.426;99.512;2023-09-08T12:35:30;100665.56;;;30.60;65.27
36798;BME280;22748;8.426;99.512;2023-09-08T12:38:04;100670.28;;;30.65;64.88
36798;BME280;22748;8.426;99.512;2023-09-08T12:40:35;100676.44;;;30.72;64.87
36798;BME280;22748;8.426;99.512;2023-09-08T12:43:05;100685.56;;;30.71;64.38
36798;BME280;22748;8.426;99.512;2023-09-08T12:45:36;100695.91;;;30.74;64.40
36798;BME280;22748;8.426;99.512;2023-09-08T12:48:07;100700.88;;;30.77;64.42
36798;BME280;22748;8.426;99.512;2023-09-08T12:50:43;100701.47;;;30.79;64.21
36798;BME280;22748;8.426;99.512;2023-09-08T12:53:16;100712.84;;;30.81;64.09
36798;BME280;22748;8.426;99.512;2023-09-08T12:55:46;100713.91;;;30.80;64.08
36798;BME280;22748;8.426;99.512;2023-09-08T12:58:16;100721.53;;;30.83;63.94
36798;BME280;22748;8.426;99.512;2023-09-08T13:00:46;100727.19;;;30.82;63.61
36798;BME280;22748;8.426;99.512;2023-09-08T13:03:16;100728.59;;;30.84;63.83
36798;BME280;22748;8.426;99.512;2023-09-08T13:05:49;100736.69;;;30.84;63.41
36798;BME280;22748;8.426;99.512;2023-09-08T13:08:24;100732.13;;;30.85;63.59
36798;BME280;22748;8.426;99.512;2023-09-08T13:10:57;100734.00;;;30.84;63.27
36798;BME280;22748;8.426;99.512;2023-09-08T13:13:28;100728.59;;;30.84;63.31
36798;BME280;22748;8.426;99.512;2023-09-08T13:15:59;100731.94;;;30.86;63.05
36798;BME280;22748;8.426;99.512;2023-09-08T13:18:30;100738.53;;;30.90;62.83
36798;BME280;22748;8.426;99.512;2023-09-08T13:21:06;100746.63;;;30.90;62.51
36798;BME280;22748;8.426;99.512;2023-09-08T13:23:39;100756.38;;;30.91;62.71
36798;BME280;22748;8.426;99.512;2023-09-08T13:26:09;100758.84;;;30.93;62.64
36798;BME280;22748;8.426;99.512;2023-09-08T13:28:41;100758.84;;;30.93;62.59
36798;BME280;22748;8.426;99.512;2023-09-08T13:31:09;100766.53;;;30.89;62.59
36798;BME280;22748;8.426;99.512;2023-09-08T13:33:40;100768.41;;;30.89;62.63
36798;BME280;22748;8.426;99.512;2023-09-08T13:36:10;100771.13;;;30.82;63.06
36798;BME280;22748;8.426;99.512;2023-09-08T13:38:42;100776.56;;;30.75;63.35
36798;BME280;22748;8.426;99.512;2023-09-08T13:41:12;100776.78;;;30.74;63.39
36798;BME280;22748;8.426;99.512;2023-09-08T13:43:43;100790.94;;;30.69;63.38
36798;BME280;22748;8.426;99.512;2023-09-08T13:46:13;100793.16;;;30.72;63.35
36798;BME280;22748;8.426;99.512;2023-09-08T13:48:44;100793.78;;;30.74;63.30
36798;BME280;22748;8.426;99.512;2023-09-08T13:51:14;100793.56;;;30.76;63.52
36798;BME280;22748;8.426;99.512;2023-09-08T13:53:46;100802.09;;;30.73;63.56
36798;BME280;22748;8.426;99.512;2023-09-08T13:56:29;100798.34;;;30.74;63.22
36798;BME280;22748;8.426;99.512;2023-09-08T13:59:00;100801.44;;;30.78;63.45
36798;BME280;22748;8.426;99.512;2023-09-08T14:01:47;100803.91;;;30.79;63.59
36798;BME280;22748;8.426;99.512;2023-09-08T14:04:17;100800.41;;;30.79;63.53
36798;BME280;22748;8.426;99.512;2023-09-08T14:06:47;100808.28;;;30.80;63.10
36798;BME280;22748;8.426;99.512;2023-09-08T14:09:25;100818.44;;;30.78;63.33
36798;BME280;22748;8.426;99.512;2023-09-08T14:12:10;100821.16;;;30.78;63.43
36798;BME280;22748;8.426;99.512;2023-09-08T14:14:45;100837.31;;;30.78;63.18
36798;BME280;22748;8.426;99.512;2023-09-08T14:17:16;100821.16;;;30.78;63.32
36798;BME280;22748;8.426;99.512;2023-09-08T14:19:52;100827.97;;;30.81;63.50
36798;BME280;22748;8.426;99.512;2023-09-08T14:22:24;100822.78;;;30.79;63.38
36798;BME280;22748;8.426;99.512;2023-09-08T14:25:00;100819.88;;;30.81;63.56
36798;BME280;22748;8.426;99.512;2023-09-08T14:27:30;100826.09;;;30.81;63.57
36798;BME280;22748;8.426;99.512;2023-09-08T14:30:04;100820.69;;;30.81;63.41
36798;BME280;22748;8.426;99.512;2023-09-08T14:32:35;100835.25;;;30.80;63.21
36798;BME280;22748;8.426;99.512;2023-09-08T14:35:08;100826.09;;;30.81;63.65
36798;BME280;22748;8.426;99.512;2023-09-08T14:37:46;100832.75;;;30.79;63.39
36798;BME280;22748;8.426;99.512;2023-09-08T14:40:21;100838.97;;;30.79;63.69
36798;BME280;22748;8.426;99.512;2023-09-08T14:42:54;100835.44;;;30.79;63.32
36798;BME280;22748;8.426;99.512;2023-09-08T14:45:26;100842.72;;;30.78;63.72
36798;BME280;22748;8.426;99.512;2023-09-08T14:47:55;100853.94;;;30.75;63.46
36798;BME280;22748;8.426;99.512;2023-09-08T14:50:30;100857.25;;;30.77;63.45
36798;BME280;22748;8.426;99.512;2023-09-08T14:53:01;100851.00;;;30.76;63.64
36798;BME280;22748;8.426;99.512;2023-09-08T14:55:36;100863.47;;;30.78;63.70
36798;BME280;22748;8.426;99.512;2023-09-08T14:58:08;100864.28;;;30.78;63.66
36798;BME280;22748;8.426;99.512;2023-09-08T15:00:40;100866.97;;;30.78;63.59
36798;BME280;22748;8.426;99.512;2023-09-08T15:03:10;100869.06;;;30.76;63.73
36798;BME280;22748;8.426;99.512;2023-09-08T15:05:42;100868.03;;;30.77;63.71
36798;BME280;22748;8.426;99.512;2023-09-08T15:08:13;100866.16;;;30.78;63.81
36798;BME280;22748;8.426;99.512;2023-09-08T15:10:46;100868.03;;;30.77;63.44
36798;BME280;22748;8.426;99.512;2023-09-08T15:13:19;100872.59;;;30.76;63.78
36798;BME280;22748;8.426;99.512;2023-09-08T15:16:01;100878.22;;;30.75;63.53
36798;BME280;22748;8.426;99.512;2023-09-08T15:18:44;100880.91;;;30.75;63.73
36798;BME280;22748;8.426;99.512;2023-09-08T15:21:15;100880.06;;;30.74;63.98
36798;BME280;22748;8.426;99.512;2023-09-08T15:24:01;100873.03;;;30.73;63.80
36798;BME280;22748;8.426;99.512;2023-09-08T15:26:37;100873.84;;;30.74;63.69
36798;BME280;22748;8.426;99.512;2023-09-08T15:29:08;100870.34;;;30.73;64.15
36798;BME280;22748;8.426;99.512;2023-09-08T15:31:54;100875.50;;;30.75;63.64
36798;BME280;22748;8.426;99.512;2023-09-08T15:34:37;100877.59;;;30.73;64.03
36798;BME280;22748;8.426;99.512;2023-09-08T15:37:12;100881.94;;;30.74;63.91
36798;BME280;22748;8.426;99.512;2023-09-08T15:39:41;100885.50;;;30.68;64.14
36798;BME280;22748;8.426;99.512;2023-09-08T15:42:15;100885.06;;;30.71;63.93
36798;BME280;22748;8.426;99.512;2023-09-08T15:44:49;100885.91;;;30.71;63.97
36798;BME280;22748;8.426;99.512;2023-09-08T15:47:38;100880.72;;;30.70;64.07
36798;BME280;22748;8.426;99.512;2023-09-08T15:53:47;100881.75;;;30.69;64.21
36798;BME280;22748;8.426;99.512;2023-09-08T15:56:47;100886.34;;;30.68;64.08
36798;BME280;22748;8.426;99.512;2023-09-08T15:59:19;100886.34;;;30.68;64.02
36798;BME280;22748;8.426;99.512;2023-09-08T16:02:03;100881.75;;;30.69;63.94
36798;BME280;22748;8.426;99.512;2023-09-08T16:04:34;100874.69;;;30.68;64.37
36798;BME280;22748;8.426;99.512;2023-09-08T16:07:05;100874.69;;;30.68;64.14
36798;BME280;22748;8.426;99.512;2023-09-08T16:09:35;100868.94;;;30.64;64.40
36798;BME280;22748;8.426;99.512;2023-09-08T16:12:07;100868.09;;;30.64;64.11
36798;BME280;22748;8.426;99.512;2023-09-08T16:14:54;100867.06;;;30.65;64.44
36798;BME280;22748;8.426;99.512;2023-09-08T16:17:27;100870.78;;;30.64;64.10
36798;BME280;22748;8.426;99.512;2023-09-08T16:19:59;100872.66;;;30.63;64.34
36798;BME280;22748;8.426;99.512;2023-09-08T16:22:30;100866.44;;;30.63;64.27
36798;BME280;22748;8.426;99.512;2023-09-08T16:25:00;100877.22;;;30.63;64.38
36798;BME280;22748;8.426;99.512;2023-09-08T16:27:31;100865.84;;;30.61;64.41
36798;BME280;22748;8.426;99.512;2023-09-08T16:30:04;100863.13;;;30.61;64.27
36798;BME280;22748;8.426;99.512;2023-09-08T16:32:36;100856.09;;;30.60;64.51
36798;BME280;22748;8.426;99.512;2023-09-08T16:35:08;100859.81;;;30.59;64.41
36798;BME280;22748;8.426;99.512;2023-09-08T16:37:39;100854.44;;;30.59;64.28
36798;BME280;22748;8.426;99.512;2023-09-08T16:40:10;100853.81;;;30.57;64.74
36798;BME280;22748;8.426;99.512;2023-09-08T16:42:40;100852.81;;;30.58;64.51
36798;BME280;22748;8.426;99.512;2023-09-08T16:45:28;100854.88;;;30.55;64.38
36798;BME280;22748;8.426;99.512;2023-09-08T16:47:59;100847.00;;;30.54;64.50
36798;BME280;22748;8.426;99.512;2023-09-08T16:50:30;100851.13;;;30.57;64.36
36798;BME280;22748;8.426;99.512;2023-09-08T16:53:00;100842.22;;;30.56;64.62
36798;BME280;22748;8.426;99.512;2023-09-08T16:55:31;100846.78;;;30.55;64.64
36798;BME280;22748;8.426;99.512;2023-09-08T16:58:02;100833.31;;;30.55;64.75
36798;BME280;22748;8.426;99.512;2023-09-08T17:03:28;100819.22;;;30.53;64.62
36798;BME280;22748;8.426;99.512;2023-09-08T17:06:12;100812.16;;;30.52;64.83
36798;BME280;22748;8.426;99.512;2023-09-08T17:08:57;100813.00;;;30.53;64.53
36798;BME280;22748;8.426;99.512;2023-09-08T17:11:27;100811.56;;;30.50;64.84
36798;BME280;22748;8.426;99.512;2023-09-08T17:14:11;100808.03;;;30.50;64.85
36798;BME280;22748;8.426;99.512;2023-09-08T17:16:58;100807.22;;;30.49;64.54
36798;BME280;22748;8.426;99.512;2023-09-08T17:19:30;100803.47;;;30.50;64.69
36798;BME280;22748;8.426;99.512;2023-09-08T17:22:00;100800.16;;;30.48;64.52
36798;BME280;22748;8.426;99.512;2023-09-08T17:24:32;100794.16;;;30.46;64.52
36798;BME280;22748;8.426;99.512;2023-09-08T17:27:14;100798.13;;;30.44;64.83
36798;BME280;22748;8.426;99.512;2023-09-08T17:29:45;100787.34;;;30.44;64.60
36798;BME280;22748;8.426;99.512;2023-09-08T17:32:23;100791.91;;;30.43;64.91
36798;BME280;22748;8.426;99.512;2023-09-08T17:34:55;100784.03;;;30.42;64.62
36798;BME280;22748;8.426;99.512;2023-09-08T17:37:25;100781.13;;;30.43;65.03
36798;BME280;22748;8.426;99.512;2023-09-08T17:43:12;100776.19;;;30.40;64.59
36798;BME280;22748;8.426;99.512;2023-09-08T17:45:48;100767.50;;;30.38;64.79
36798;BME280;22748;8.426;99.512;2023-09-08T17:49:00;100759.16;;;30.40;65.01
36798;BME280;22748;8.426;99.512;2023-09-08T17:51:58;100754.03;;;30.38;64.68
36798;BME280;22748;8.426;99.512;2023-09-08T17:54:29;100755.25;;;30.35;64.68
36798;BME280;22748;8.426;99.512;2023-09-08T17:56:59;100750.50;;;30.31;65.13
36798;BME280;22748;8.426;99.512;2023-09-08T17:59:36;100751.75;;;30.35;64.88
36798;BME280;22748;8.426;99.512;2023-09-08T18:02:37;100750.09;;;30.34;64.93
36798;BME280;22748;8.426;99.512;2023-09-08T18:05:10;100747.16;;;30.35;65.09
36798;BME280;22748;8.426;99.512;2023-09-08T18:07:53;100739.31;;;30.34;65.21
36798;BME280;22748;8.426;99.512;2023-09-08T18:10:58;100740.34;;;30.33;65.15
36798;BME280;22748;8.426;99.512;2023-09-08T18:13:49;100739.75;;;30.31;64.91
36798;BME280;22748;8.426;99.512;2023-09-08T18:16:20;100726.25;;;30.31;65.07
36798;BME280;22748;8.426;99.512;2023-09-08T18:18:50;100720.25;;;30.29;64.94
36798;BME280;22748;8.426;99.512;2023-09-08T18:21:25;100718.63;;;30.28;65.12
36798;BME280;22748;8.426;99.512;2023-09-08T18:23:56;100711.53;;;30.27;65.30
36798;BME280;22748;8.426;99.512;2023-09-08T18:26:27;100715.94;;;30.28;65.16
36798;BME280;22748;8.426;99.512;2023-09-08T18:29:09;100709.50;;;30.29;65.28
36798;BME280;22748;8.426;99.512;2023-09-08T18:32:10;100705.97;;;30.28;65.21
36798;BME280;22748;8.426;99.512;2023-09-08T18:34:53;100710.72;;;30.26;65.46
36798;BME280;22748;8.426;99.512;2023-09-08T18:37:26;100704.31;;;30.27;65.40
36798;BME280;22748;8.426;99.512;2023-09-08T18:40:00;100703.47;;;30.27;65.11
36798;BME280;22748;8.426;99.512;2023-09-08T18:42:32;100702.88;;;30.25;65.38
36798;BME280;22748;8.426;99.512;2023-09-08T18:45:03;100695.81;;;30.24;65.41
36798;BME280;22748;8.426;99.512;2023-09-08T18:47:34;100698.53;;;30.24;65.55
36798;BME280;22748;8.426;99.512;2023-09-08T18:50:05;100697.09;;;30.21;65.37
36798;BME280;22748;8.426;99.512;2023-09-08T18:52:39;100679.06;;;30.22;65.60
36798;BME280;22748;8.426;99.512;2023-09-08T18:55:10;100677.19;;;30.22;65.39
36798;BME280;22748;8.426;99.512;2023-09-08T18:57:41;100673.88;;;30.20;65.39
36798;BME280;22748;8.426;99.512;2023-09-08T19:00:13;100673.06;;;30.20;65.25
36798;BME280;22748;8.426;99.512;2023-09-08T19:02:44;100671.41;;;30.19;65.35
36798;BME280;22748;8.426;99.512;2023-09-08T19:05:16;100660.41;;;30.20;65.57
36798;BME280;22748;8.426;99.512;2023-09-08T19:07:48;100658.78;;;30.19;65.60
36798;BME280;22748;8.426;99.512;2023-09-08T19:10:19;100658.97;;;30.18;65.21
36798;BME280;22748;8.426;99.512;2023-09-08T19:12:49;100650.13;;;30.10;65.37
36798;BME280;22748;8.426;99.512;2023-09-08T19:15:20;100640.56;;;30.14;65.63
36798;BME280;22748;8.426;99.512;2023-09-08T19:17:51;100645.97;;;30.14;65.71
36798;BME280;22748;8.426;99.512;2023-09-08T19:23:36;100631.06;;;30.12;65.82
36798;BME280;22748;8.426;99.512;2023-09-08T19:26:25;100631.88;;;30.12;65.24
36798;BME280;22748;8.426;99.512;2023-09-08T19:29:25;100626.69;;;30.11;65.72
36798;BME280;22748;8.426;99.512;2023-09-08T19:31:56;100619.44;;;30.11;65.16
36798;BME280;22748;8.426;99.512;2023-09-08T19:34:27;100616.13;;;30.09;65.27
36798;BME280;22748;8.426;99.512;2023-09-08T19:36:58;100609.13;;;30.08;65.77
36798;BME280;22748;8.426;99.512;2023-09-08T19:39:31;100603.53;;;30.10;65.70
36798;BME280;22748;8.426;99.512;2023-09-08T19:42:01;100598.13;;;30.10;65.66
36798;BME280;22748;8.426;99.512;2023-09-08T19:44:33;100598.34;;;30.08;65.62
36798;BME280;22748;8.426;99.512;2023-09-08T19:47:04;100598.34;;;30.08;65.61
36798;BME280;22748;8.426;99.512;2023-09-08T19:49:34;100603.31;;;30.05;65.59
36798;BME280;22748;8.426;99.512;2023-09-08T19:52:05;100599.41;;;30.07;65.35
36798;BME280;22748;8.426;99.512;2023-09-08T19:54:38;100595.03;;;30.06;65.58
36798;BME280;22748;8.426;99.512;2023-09-08T19:57:13;100595.25;;;30.05;65.71
36798;BME280;22748;8.426;99.512;2023-09-08T19:59:44;100596.09;;;30.05;65.37
36798;BME280;22748;8.426;99.512;2023-09-08T20:02:30;100588.03;;;30.05;65.56
36798;BME280;22748;8.426;99.512;2023-09-08T20:05:48;100583.88;;;30.03;65.82
36798;BME280;22748;8.426;99.512;2023-09-08T20:08:25;100582.03;;;30.03;65.43
36798;BME280;22748;8.426;99.512;2023-09-08T20:11:10;100571.25;;;30.03;65.50
36798;BME280;22748;8.426;99.512;2023-09-08T20:13:56;100572.50;;;30.01;65.50
36798;BME280;22748;8.426;99.512;2023-09-08T20:16:27;100561.72;;;30.01;65.50
36798;BME280;22748;8.426;99.512;2023-09-08T20:19:11;100553.88;;;29.99;65.47
36798;BME280;22748;8.426;99.512;2023-09-08T20:21:42;100555.97;;;29.97;65.63
36798;BME280;22748;8.426;99.512;2023-09-08T20:24:17;100559.69;;;29.96;65.88
36798;BME280;22748;8.426;99.512;2023-09-08T20:26:50;100576.69;;;29.97;65.44
36798;BME280;22748;8.426;99.512;2023-09-08T20:29:21;100574.19;;;29.95;65.34
36798;BME280;22748;8.426;99.512;2023-09-08T20:31:52;100570.44;;;29.96;65.50
36798;BME280;22748;8.426;99.512;2023-09-08T20:34:23;100575.03;;;29.96;65.42
36798;BME280;22748;8.426;99.512;2023-09-08T20:36:54;100574.19;;;29.95;65.32
36798;BME280;22748;8.426;99.512;2023-09-08T20:39:24;100574.84;;;29.90;65.84
36798;BME280;22748;8.426;99.512;2023-09-08T20:42:09;100579.63;;;29.88;65.88
36798;BME280;22748;8.426;99.512;2023-09-08T20:44:40;100579.44;;;29.90;65.83
36798;BME280;22748;8.426;99.512;2023-09-08T20:47:11;100584.56;;;29.91;65.78
36798;BME280;22748;8.426;99.512;2023-09-08T20:49:44;100592.88;;;29.90;65.62
36798;BME280;22748;8.426;99.512;2023-09-08T20:52:15;100600.97;;;29.90;65.46
36798;BME280;22748;8.426;99.512;2023-09-08T20:54:46;100603.66;;;29.90;65.64
36798;BME280;22748;8.426;99.512;2023-09-08T20:57:24;100602.81;;;29.89;65.84
36798;BME280;22748;8.426;99.512;2023-09-08T21:00:01;100597.66;;;29.88;65.74
36798;BME280;22748;8.426;99.512;2023-09-08T21:02:32;100602.00;;;29.89;65.54
36798;BME280;22748;8.426;99.512;2023-09-08T21:05:03;100594.13;;;29.87;65.50
36798;BME280;22748;8.426;99.512;2023-09-08T21:07:34;100596.59;;;29.89;65.84
36798;BME280;22748;8.426;99.512;2023-09-08T21:13:45;100589.78;;;29.86;65.59
36798;BME280;22748;8.426;99.512;2023-09-08T21:16:16;100598.06;;;29.85;65.69
36798;BME280;22748;8.426;99.512;2023-09-08T21:18:57;100605.34;;;29.84;66.15
36798;BME280;22748;8.426;99.512;2023-09-08T21:21:29;100600.78;;;29.85;65.89
36798;BME280;22748;8.426;99.512;2023-09-08T21:24:04;100603.66;;;29.83;65.96
36798;BME280;22748;8.426;99.512;2023-09-08T21:26:42;100598.53;;;29.82;65.58
36798;BME280;22748;8.426;99.512;2023-09-08T21:29:15;100601.81;;;29.84;65.43
36798;BME280;22748;8.426;99.512;2023-09-08T21:31:45;100597.25;;;29.84;65.79
36798;BME280;22748;8.426;99.512;2023-09-08T21:34:15;100595.81;;;29.82;65.85
36798;BME280;22748;8.426;99.512;2023-09-08T21:36:52;100600.16;;;29.83;65.97
36798;BME280;22748;8.426;99.512;2023-09-08T21:39:21;100602.84;;;29.83;65.86
36798;BME280;22748;8.426;99.512;2023-09-08T21:41:56;100593.94;;;29.82;65.52
36798;BME280;22748;8.426;99.512;2023-09-08T21:44:34;100599.53;;;29.81;65.72
36798;BME280;22748;8.426;99.512;2023-09-08T21:47:17;100610.31;;;29.81;65.64
36798;BME280;22748;8.426;99.512;2023-09-08T21:49:47;100607.41;;;29.82;65.83
36798;BME280;22748;8.426;99.512;2023-09-08T21:52:18;100605.97;;;29.80;65.75
36798;BME280;22748;8.426;99.512;2023-09-08T21:54:54;100597.91;;;29.80;65.96
36798;BME280;22748;8.426;99.512;2023-09-08T21:57:41;100594.59;;;29.78;65.70
36798;BME280;22748;8.426;99.512;2023-09-08T22:00:20;100592.94;;;29.77;65.85
36798;BME280;22748;8.426;99.512;2023-09-08T22:03:02;100589.22;;;29.78;65.59
36798;BME280;22748;8.426;99.512;2023-09-08T22:05:39;100596.25;;;29.79;66.09
36798;BME280;22748;8.426;99.512;2023-09-08T22:08:11;100579.28;;;29.78;66.09
36798;BME280;22748;8.426;99.512;2023-09-08T22:10:42;100584.44;;;29.80;65.64
36798;BME280;22748;8.426;99.512;2023-09-08T22:13:13;100574.28;;;29.82;66.07
36798;BME280;22748;8.426;99.512;2023-09-08T22:15:47;100571.41;;;29.77;66.30
36798;BME280;22748;8.426;99.512;2023-09-08T22:18:17;100579.47;;;29.77;66.52
36798;BME280;22748;8.426;99.512;2023-09-08T22:20:53;100570.59;;;29.76;66.14
36798;BME280;22748;8.426;99.512;2023-09-08T22:23:32;100570.22;;;29.72;65.92
36798;BME280;22748;8.426;99.512;2023-09-08T22:26:02;100568.53;;;29.71;66.55
36798;BME280;22748;8.426;99.512;2023-09-08T22:28:33;100567.13;;;29.69;66.55
36798;BME280;22748;8.426;99.512;2023-09-08T22:31:05;100557.59;;;29.66;66.62
36798;BME280;22748;8.426;99.512;2023-09-08T22:33:36;100564.59;;;29.67;67.08
36798;BME280;22748;8.426;99.512;2023-09-08T22:36:07;100561.91;;;29.67;66.86
36798;BME280;22748;8.426;99.512;2023-09-08T22:38:38;100566.47;;;29.67;67.22
36798;BME280;22748;8.426;99.512;2023-09-08T22:41:08;100569.16;;;29.67;67.24
36798;BME280;22748;8.426;99.512;2023-09-08T22:43:39;100558.59;;;29.65;67.13
36798;BME280;22748;8.426;99.512;2023-09-08T22:46:13;100557.78;;;29.65;67.34
36798;BME280;22748;8.426;99.512;2023-09-08T22:48:43;100554.03;;;29.66;67.33
36798;BME280;22748;8.426;99.512;2023-09-08T22:51:13;100544.78;;;29.62;67.30
36798;BME280;22748;8.426;99.512;2023-09-08T22:53:45;100553.66;;;29.62;67.29
36798;BME280;22748;8.426;99.512;2023-09-08T22:56:16;100553.88;;;29.61;67.38
36798;BME280;22748;8.426;99.512;2023-09-08T22:58:46;100557.00;;;29.58;67.25
36798;BME280;22748;8.426;99.512;2023-09-08T23:01:19;100569.81;;;29.62;67.44
36798;BME280;22748;8.426;99.512;2023-09-08T23:03:50;100571.91;;;29.60;67.62
36798;BME280;22748;8.426;99.512;2023-09-08T23:06:20;100576.47;;;29.60;67.42
36798;BME280;22748;8.426;99.512;2023-09-08T23:08:51;100585.56;;;29.59;67.54
36798;BME280;22748;8.426;99.512;2023-09-08T23:11:21;100583.94;;;29.58;67.46
36798;BME280;22748;8.426;99.512;2023-09-08T23:13:52;100583.50;;;29.54;67.52
36798;BME280;22748;8.426;99.512;2023-09-08T23:16:23;100586.03;;;29.49;67.69
36798;BME280;22748;8.426;99.512;2023-09-08T23:18:53;100577.97;;;29.49;67.42
36798;BME280;22748;8.426;99.512;2023-09-08T23:21:24;100573.66;;;29.35;67.79
36798;BME280;22748;8.426;99.512;2023-09-08T23:23:55;100571.59;;;29.37;67.75
36798;BME280;22748;8.426;99.512;2023-09-08T23:26:26;100573.66;;;29.35;68.04
36798;BME280;22748;8.426;99.512;2023-09-08T23:28:56;100575.34;;;29.22;68.27
36798;BME280;22748;8.426;99.512;2023-09-08T23:31:29;100591.09;;;29.25;68.38
36798;BME280;22748;8.426;99.512;2023-09-08T23:33:59;100588.41;;;29.25;68.00
36798;BME280;22748;8.426;99.512;2023-09-08T23:36:31;100598.09;;;29.26;68.46
36798;BME280;22748;8.426;99.512;2023-09-08T23:39:03;100601.66;;;29.20;68.10
36798;BME280;22748;8.426;99.512;2023-09-08T23:41:34;100603.94;;;29.23;68.43
36798;BME280;22748;8.426;99.512;2023-09-08T23:44:04;100606.84;;;29.15;68.72
36798;BME280;22748;8.426;99.512;2023-09-08T23:46:38;100610.16;;;29.17;68.26
36798;BME280;22748;8.426;99.512;2023-09-08T23:49:09;100614.50;;;29.18;68.38
36798;BME280;22748;8.426;99.512;2023-09-08T23:51:42;100618.81;;;29.19;68.54
36798;BME280;22748;8.426;99.512;2023-09-08T23:54:15;100618.81;;;29.19;68.54
36798;BME280;22748;8.426;99.512;2023-09-08T23:56:45;100630.44;;;29.13;68.52
36798;BME280;22748;8.426;99.512;2023-09-08T23:59:15;100634.56;;;29.09;68.40
